Airfield :
LOGIN :

Register | Disclaimer

   EN    FR    IT 

 










Legend :    VFR   Marginal VFR   IFR   Intensive IFR   Very Intensive IFR
Visi :
Ceiling :
>= 8 km
>= 3000ft
5 to 8 km
1000 to 3000 ft
1500m to 5 km
500 to 1000 ft
800 to 1500m
200 to 500 ft
< 800m
< 200 ft
Symbols :   Thunderstorms  Fog  Heavy snow  Heavy precipitations  Wind > 20 kt
SIGMETs :     Misc.  Thunderstorms  Icing  Turbulence  Mountain Waves  Volcanic Ashes






- Airport Elevation : 39 ft
- IATA code : TRS


LIPQ - Friuli Venezia Giulia Apt. Trieste

CURRENT METAR :
  • 280820Z AUTO 30002KT 9999 OVC130/// 06/02 Q1020

EXPIRED METARs :
  • 280750Z AUTO 35004KT 9999 SCT130/// 05/02 Q1020
  • 280720Z AUTO 03005KT 9999 NCD 03/00 Q1020
  • 280650Z AUTO 01006KT 9999 NCD 01/M00 Q1020
  • 280620Z AUTO 02005KT 9999 NCD 01/M01 Q1020
  • 280550Z AUTO 01004KT 9999 NCD 00/M01 Q1020

TAF TAF LIPQ
Valid from the 28 at 06:00 until the 29 at 06:00 UTC


280500Z 2806/2906 VRB05KT CAVOK



MET'MAP, your aeronautical weather chart ! - Copyright ORBIFLY December 2007 - Disclaimer

ORBIFLY MET'MAP TEAM :

Programming & Development : Alexandra Zaïnal
Original concept : Baudouin d'Aumeries
Technical & hardware support : Manuel Goepfert
Assistance : Marc-Olivier Méhu




SOURCES & CREDITS :

   NOAA